sensor_id;sensor_type;location;lat;lon;timestamp;temperature;humidity
15930;DHT22;8064;51.142;4.780;2023-10-09T00:02:08;16.10;99.90
15930;DHT22;8064;51.142;4.780;2023-10-09T00:04:34;16.10;99.90
15930;DHT22;8064;51.142;4.780;2023-10-09T00:07:03;16.10;99.90
15930;DHT22;8064;51.142;4.780;2023-10-09T00:09:29;16.10;99.90
15930;DHT22;8064;51.142;4.780;2023-10-09T00:11:57;16.10;99.90
15930;DHT22;8064;51.142;4.780;2023-10-09T00:14:24;16.20;99.90
15930;DHT22;8064;51.142;4.780;2023-10-09T00:16:50;16.20;99.90
15930;DHT22;8064;51.142;4.780;2023-10-09T00:19:22;16.20;99.90
15930;DHT22;8064;51.142;4.780;2023-10-09T00:21:59;16.20;99.90
15930;DHT22;8064;51.142;4.780;2023-10-09T00:24:32;16.20;99.90
15930;DHT22;8064;51.142;4.780;2023-10-09T00:26:58;16.20;99.90
15930;DHT22;8064;51.142;4.780;2023-10-09T00:29:40;16.20;99.90
15930;DHT22;8064;51.142;4.780;2023-10-09T00:32:12;16.20;99.90
15930;DHT22;8064;51.142;4.780;2023-10-09T00:34:49;16.20;99.90
15930;DHT22;8064;51.142;4.780;2023-10-09T00:37:16;16.30;99.90
15930;DHT22;8064;51.142;4.780;2023-10-09T00:39:43;16.30;99.90
15930;DHT22;8064;51.142;4.780;2023-10-09T00:42:10;16.30;99.90
15930;DHT22;8064;51.142;4.780;2023-10-09T00:44:51;16.30;99.90
15930;DHT22;8064;51.142;4.780;2023-10-09T00:47:17;16.30;99.90
15930;DHT22;8064;51.142;4.780;2023-10-09T00:49:57;16.30;99.90
15930;DHT22;8064;51.142;4.780;2023-10-09T00:52:32;16.30;99.90
15930;DHT22;8064;51.142;4.780;2023-10-09T00:55:09;16.30;99.90
15930;DHT22;8064;51.142;4.780;2023-10-09T00:57:48;16.30;99.90
15930;DHT22;8064;51.142;4.780;2023-10-09T01:00:26;16.40;99.90
15930;DHT22;8064;51.142;4.780;2023-10-09T01:03:00;16.40;99.90
15930;DHT22;8064;51.142;4.780;2023-10-09T01:05:36;16.40;99.90
15930;DHT22;8064;51.142;4.780;2023-10-09T01:08:03;16.50;99.90
15930;DHT22;8064;51.142;4.780;2023-10-09T01:10:47;16.50;99.90
15930;DHT22;8064;51.142;4.780;2023-10-09T01:13:17;16.60;99.90
15930;DHT22;8064;51.142;4.780;2023-10-09T01:15:44;16.60;99.90
15930;DHT22;8064;51.142;4.780;2023-10-09T01:18:11;16.60;99.90
15930;DHT22;8064;51.142;4.780;2023-10-09T01:20:38;16.60;99.90
15930;DHT22;8064;51.142;4.780;2023-10-09T01:23:11;16.60;99.90
15930;DHT22;8064;51.142;4.780;2023-10-09T01:25:37;16.70;99.90
15930;DHT22;8064;51.142;4.780;2023-10-09T01:28:09;16.70;99.90
15930;DHT22;8064;51.142;4.780;2023-10-09T01:30:35;16.70;99.90
15930;DHT22;8064;51.142;4.780;2023-10-09T01:33:08;16.70;99.90
15930;DHT22;8064;51.142;4.780;2023-10-09T01:35:47;16.80;99.90
15930;DHT22;8064;51.142;4.780;2023-10-09T01:38:15;16.80;99.90
15930;DHT22;8064;51.142;4.780;2023-10-09T01:40:41;16.80;99.90
15930;DHT22;8064;51.142;4.780;2023-10-09T01:43:09;16.80;99.90
15930;DHT22;8064;51.142;4.780;2023-10-09T01:45:36;16.80;99.90
15930;DHT22;8064;51.142;4.780;2023-10-09T01:48:12;16.80;99.90
15930;DHT22;8064;51.142;4.780;2023-10-09T01:50:40;16.80;99.90
15930;DHT22;8064;51.142;4.780;2023-10-09T01:53:08;16.80;99.90
15930;DHT22;8064;51.142;4.780;2023-10-09T01:55:34;16.80;99.90
15930;DHT22;8064;51.142;4.780;2023-10-09T01:58:05;16.80;99.90
15930;DHT22;8064;51.142;4.780;2023-10-09T02:00:41;16.80;99.90
15930;DHT22;8064;51.142;4.780;2023-10-09T02:03:09;16.80;99.90
15930;DHT22;8064;51.142;4.780;2023-10-09T02:05:49;16.90;99.90
15930;DHT22;8064;51.142;4.780;2023-10-09T02:08:17;16.90;99.90
15930;DHT22;8064;51.142;4.780;2023-10-09T02:10:48;16.90;99.90
15930;DHT22;8064;51.142;4.780;2023-10-09T02:13:14;16.90;99.90
15930;DHT22;8064;51.142;4.780;2023-10-09T02:15:43;16.90;99.90
15930;DHT22;8064;51.142;4.780;2023-10-09T02:18:16;16.90;99.90
15930;DHT22;8064;51.142;4.780;2023-10-09T02:20:46;16.90;99.90
15930;DHT22;8064;51.142;4.780;2023-10-09T02:23:13;16.80;99.90
15930;DHT22;8064;51.142;4.780;2023-10-09T02:25:41;16.90;99.90
15930;DHT22;8064;51.142;4.780;2023-10-09T02:28:09;16.90;99.90
15930;DHT22;8064;51.142;4.780;2023-10-09T02:30:44;16.80;99.90
15930;DHT22;8064;51.142;4.780;2023-10-09T02:33:15;16.80;99.90
15930;DHT22;8064;51.142;4.780;2023-10-09T02:35:46;16.80;99.90
15930;DHT22;8064;51.142;4.780;2023-10-09T02:38:17;16.70;99.90
15930;DHT22;8064;51.142;4.780;2023-10-09T02:40:43;16.70;99.90
15930;DHT22;8064;51.142;4.780;2023-10-09T02:43:29;16.70;99.90
15930;DHT22;8064;51.142;4.780;2023-10-09T02:46:15;16.70;99.90
15930;DHT22;8064;51.142;4.780;2023-10-09T02:48:45;16.70;99.90
15930;DHT22;8064;51.142;4.780;2023-10-09T02:51:17;16.70;99.90
15930;DHT22;8064;51.142;4.780;2023-10-09T02:53:59;16.70;99.90
15930;DHT22;8064;51.142;4.780;2023-10-09T02:56:32;16.70;99.90
15930;DHT22;8064;51.142;4.780;2023-10-09T02:59:08;16.70;99.90
15930;DHT22;8064;51.142;4.780;2023-10-09T03:01:36;16.70;99.90
15930;DHT22;8064;51.142;4.780;2023-10-09T03:04:04;16.70;99.90
15930;DHT22;8064;51.142;4.780;2023-10-09T03:06:32;16.70;99.90
15930;DHT22;8064;51.142;4.780;2023-10-09T03:09:00;16.70;99.90
15930;DHT22;8064;51.142;4.780;2023-10-09T03:11:26;16.70;99.90
15930;DHT22;8064;51.142;4.780;2023-10-09T03:13:53;16.70;99.90
15930;DHT22;8064;51.142;4.780;2023-10-09T03:16:18;16.70;99.90
15930;DHT22;8064;51.142;4.780;2023-10-09T03:18:46;16.70;99.90
15930;DHT22;8064;51.142;4.780;2023-10-09T03:21:13;16.70;99.90
15930;DHT22;8064;51.142;4.780;2023-10-09T03:23:40;16.70;99.90
15930;DHT22;8064;51.142;4.780;2023-10-09T03:26:06;16.70;99.90
15930;DHT22;8064;51.142;4.780;2023-10-09T03:28:33;16.70;99.90
15930;DHT22;8064;51.142;4.780;2023-10-09T03:30:59;16.70;99.90
15930;DHT22;8064;51.142;4.780;2023-10-09T03:33:29;16.70;99.90
15930;DHT22;8064;51.142;4.780;2023-10-09T03:35:59;16.70;99.90
15930;DHT22;8064;51.142;4.780;2023-10-09T03:38:26;16.70;99.90
15930;DHT22;8064;51.142;4.780;2023-10-09T03:40:55;16.70;99.90
15930;DHT22;8064;51.142;4.780;2023-10-09T03:43:21;16.70;99.90
15930;DHT22;8064;51.142;4.780;2023-10-09T03:45:47;16.60;99.90
15930;DHT22;8064;51.142;4.780;2023-10-09T03:48:20;16.60;99.90
15930;DHT22;8064;51.142;4.780;2023-10-09T03:50:52;16.60;99.90
15930;DHT22;8064;51.142;4.780;2023-10-09T03:53:35;16.60;99.90
15930;DHT22;8064;51.142;4.780;2023-10-09T03:56:03;16.60;99.90
15930;DHT22;8064;51.142;4.780;2023-10-09T03:58:43;16.60;99.90
15930;DHT22;8064;51.142;4.780;2023-10-09T04:01:12;16.60;99.90
15930;DHT22;8064;51.142;4.780;2023-10-09T04:03:49;16.60;99.90
15930;DHT22;8064;51.142;4.780;2023-10-09T04:06:22;16.60;99.90
15930;DHT22;8064;51.142;4.780;2023-10-09T04:08:48;16.60;99.90
15930;DHT22;8064;51.142;4.780;2023-10-09T04:11:16;16.60;99.90
15930;DHT22;8064;51.142;4.780;2023-10-09T04:13:44;16.60;99.90
15930;DHT22;8064;51.142;4.780;2023-10-09T04:16:12;16.60;99.90
15930;DHT22;8064;51.142;4.780;2023-10-09T04:18:57;16.60;99.90
15930;DHT22;8064;51.142;4.780;2023-10-09T04:21:26;16.60;99.90
15930;DHT22;8064;51.142;4.780;2023-10-09T04:24:03;16.60;99.90
15930;DHT22;8064;51.142;4.780;2023-10-09T04:26:48;16.60;99.90
15930;DHT22;8064;51.142;4.780;2023-10-09T04:29:19;16.60;99.90
15930;DHT22;8064;51.142;4.780;2023-10-09T04:31:55;16.60;99.90
15930;DHT22;8064;51.142;4.780;2023-10-09T04:34:23;16.60;99.90
15930;DHT22;8064;51.142;4.780;2023-10-09T04:36:56;16.60;99.90
15930;DHT22;8064;51.142;4.780;2023-10-09T04:39:40;16.60;99.90
15930;DHT22;8064;51.142;4.780;2023-10-09T04:42:13;16.60;99.90
15930;DHT22;8064;51.142;4.780;2023-10-09T04:44:49;16.60;99.90
15930;DHT22;8064;51.142;4.780;2023-10-09T04:47:43;16.60;99.90
15930;DHT22;8064;51.142;4.780;2023-10-09T04:50:23;16.60;99.90
15930;DHT22;8064;51.142;4.780;2023-10-09T04:52:54;16.50;99.90
15930;DHT22;8064;51.142;4.780;2023-10-09T04:55:20;16.60;99.90
15930;DHT22;8064;51.142;4.780;2023-10-09T04:57:50;16.50;99.90
15930;DHT22;8064;51.142;4.780;2023-10-09T05:00:36;16.60;99.90
15930;DHT22;8064;51.142;4.780;2023-10-09T05:03:12;16.60;99.90
15930;DHT22;8064;51.142;4.780;2023-10-09T05:05:51;16.60;99.90
15930;DHT22;8064;51.142;4.780;2023-10-09T05:08:24;16.60;99.90
15930;DHT22;8064;51.142;4.780;2023-10-09T05:11:02;16.60;99.90
15930;DHT22;8064;51.142;4.780;2023-10-09T05:13:30;16.60;99.90
15930;DHT22;8064;51.142;4.780;2023-10-09T05:16:07;16.60;99.90
15930;DHT22;8064;51.142;4.780;2023-10-09T05:18:39;16.60;99.90
15930;DHT22;8064;51.142;4.780;2023-10-09T05:21:05;16.60;99.90
15930;DHT22;8064;51.142;4.780;2023-10-09T05:23:51;16.60;99.90
15930;DHT22;8064;51.142;4.780;2023-10-09T05:26:46;16.60;99.90
15930;DHT22;8064;51.142;4.780;2023-10-09T05:29:20;16.60;99.90
15930;DHT22;8064;51.142;4.780;2023-10-09T05:32:00;16.60;99.90
15930;DHT22;8064;51.142;4.780;2023-10-09T05:34:26;16.60;99.90
15930;DHT22;8064;51.142;4.780;2023-10-09T05:37:00;16.60;99.90
15930;DHT22;8064;51.142;4.780;2023-10-09T05:39:43;16.60;99.90
15930;DHT22;8064;51.142;4.780;2023-10-09T05:42:09;16.60;99.90
15930;DHT22;8064;51.142;4.780;2023-10-09T05:44:35;16.60;99.90
15930;DHT22;8064;51.142;4.780;2023-10-09T05:47:19;16.60;99.90
15930;DHT22;8064;51.142;4.780;2023-10-09T05:49:55;16.60;99.90
15930;DHT22;8064;51.142;4.780;2023-10-09T05:52:40;16.60;99.90
15930;DHT22;8064;51.142;4.780;2023-10-09T05:55:06;16.60;99.90
15930;DHT22;8064;51.142;4.780;2023-10-09T05:58:04;16.60;99.90
15930;DHT22;8064;51.142;4.780;2023-10-09T06:00:49;16.60;99.90
15930;DHT22;8064;51.142;4.780;2023-10-09T06:03:48;16.60;99.90
15930;DHT22;8064;51.142;4.780;2023-10-09T06:06:15;16.50;99.90
15930;DHT22;8064;51.142;4.780;2023-10-09T06:09:01;16.60;99.90
15930;DHT22;8064;51.142;4.780;2023-10-09T06:11:39;16.60;99.90
15930;DHT22;8064;51.142;4.780;2023-10-09T06:14:05;16.60;99.90
15930;DHT22;8064;51.142;4.780;2023-10-09T06:16:32;16.60;99.90
15930;DHT22;8064;51.142;4.780;2023-10-09T06:19:05;16.60;99.90
15930;DHT22;8064;51.142;4.780;2023-10-09T06:21:38;16.60;99.90
15930;DHT22;8064;51.142;4.780;2023-10-09T06:24:25;16.70;99.90
15930;DHT22;8064;51.142;4.780;2023-10-09T06:26:59;16.60;99.90
15930;DHT22;8064;51.142;4.780;2023-10-09T06:29:25;16.70;99.90
15930;DHT22;8064;51.142;4.780;2023-10-09T06:34:45;16.70;99.90
15930;DHT22;8064;51.142;4.780;2023-10-09T06:37:12;16.70;99.90
15930;DHT22;8064;51.142;4.780;2023-10-09T06:39:49;16.70;99.90
15930;DHT22;8064;51.142;4.780;2023-10-09T06:42:16;16.70;99.90
15930;DHT22;8064;51.142;4.780;2023-10-09T06:45:11;16.80;99.90
15930;DHT22;8064;51.142;4.780;2023-10-09T06:47:41;16.80;99.90
15930;DHT22;8064;51.142;4.780;2023-10-09T06:50:11;16.80;99.90
15930;DHT22;8064;51.142;4.780;2023-10-09T06:52:52;16.80;99.90
15930;DHT22;8064;51.142;4.780;2023-10-09T06:55:44;16.80;99.90
15930;DHT22;8064;51.142;4.780;2023-10-09T06:58:18;16.80;99.90
15930;DHT22;8064;51.142;4.780;2023-10-09T07:00:54;16.80;99.90
15930;DHT22;8064;51.142;4.780;2023-10-09T07:03:45;16.80;99.90
15930;DHT22;8064;51.142;4.780;2023-10-09T07:06:20;16.90;99.90
15930;DHT22;8064;51.142;4.780;2023-10-09T07:09:02;16.80;99.90
15930;DHT22;8064;51.142;4.780;2023-10-09T07:11:38;16.90;99.90
15930;DHT22;8064;51.142;4.780;2023-10-09T07:14:14;16.90;99.90
15930;DHT22;8064;51.142;4.780;2023-10-09T07:16:59;17.00;99.90
15930;DHT22;8064;51.142;4.780;2023-10-09T07:19:27;17.00;99.90
15930;DHT22;8064;51.142;4.780;2023-10-09T07:22:00;17.00;99.90
15930;DHT22;8064;51.142;4.780;2023-10-09T07:24:42;17.00;99.90
15930;DHT22;8064;51.142;4.780;2023-10-09T07:27:09;17.00;99.90
15930;DHT22;8064;51.142;4.780;2023-10-09T07:29:39;17.10;99.90
15930;DHT22;8064;51.142;4.780;2023-10-09T07:32:17;17.10;99.90
15930;DHT22;8064;51.142;4.780;2023-10-09T07:34:49;17.20;99.90
15930;DHT22;8064;51.142;4.780;2023-10-09T07:37:26;17.20;99.90
15930;DHT22;8064;51.142;4.780;2023-10-09T07:39:56;17.30;99.90
15930;DHT22;8064;51.142;4.780;2023-10-09T07:42:24;17.50;99.90
15930;DHT22;8064;51.142;4.780;2023-10-09T07:45:09;17.60;99.90
15930;DHT22;8064;51.142;4.780;2023-10-09T07:47:47;17.80;99.90
15930;DHT22;8064;51.142;4.780;2023-10-09T07:50:36;17.90;99.90
15930;DHT22;8064;51.142;4.780;2023-10-09T07:53:15;18.00;99.90
15930;DHT22;8064;51.142;4.780;2023-10-09T07:55:45;18.00;99.90
15930;DHT22;8064;51.142;4.780;2023-10-09T07:58:21;18.00;99.90
15930;DHT22;8064;51.142;4.780;2023-10-09T08:00:52;18.00;99.90
15930;DHT22;8064;51.142;4.780;2023-10-09T08:03:25;18.00;99.90
15930;DHT22;8064;51.142;4.780;2023-10-09T08:05:51;18.00;99.90
15930;DHT22;8064;51.142;4.780;2023-10-09T08:08:19;18.00;99.90
15930;DHT22;8064;51.142;4.780;2023-10-09T08:11:10;18.00;99.90
15930;DHT22;8064;51.142;4.780;2023-10-09T08:13:55;18.00;99.90
15930;DHT22;8064;51.142;4.780;2023-10-09T08:16:23;18.20;99.90
15930;DHT22;8064;51.142;4.780;2023-10-09T08:18:50;18.30;99.90
15930;DHT22;8064;51.142;4.780;2023-10-09T08:21:18;18.40;99.90
15930;DHT22;8064;51.142;4.780;2023-10-09T08:23:45;18.40;99.90
15930;DHT22;8064;51.142;4.780;2023-10-09T08:26:18;18.50;99.90
15930;DHT22;8064;51.142;4.780;2023-10-09T08:28:58;18.50;99.90
15930;DHT22;8064;51.142;4.780;2023-10-09T08:31:42;18.50;99.90
15930;DHT22;8064;51.142;4.780;2023-10-09T08:34:22;18.50;99.90
15930;DHT22;8064;51.142;4.780;2023-10-09T08:36:54;18.60;99.90
15930;DHT22;8064;51.142;4.780;2023-10-09T08:39:21;18.80;99.90
15930;DHT22;8064;51.142;4.780;2023-10-09T08:42:05;18.90;99.90
15930;DHT22;8064;51.142;4.780;2023-10-09T08:44:34;19.00;99.90
15930;DHT22;8064;51.142;4.780;2023-10-09T08:47:00;19.10;99.90
15930;DHT22;8064;51.142;4.780;2023-10-09T08:49:26;19.10;99.90
15930;DHT22;8064;51.142;4.780;2023-10-09T08:51:53;19.20;99.90
15930;DHT22;8064;51.142;4.780;2023-10-09T08:54:20;19.20;99.90
15930;DHT22;8064;51.142;4.780;2023-10-09T08:56:46;19.30;99.90
15930;DHT22;8064;51.142;4.780;2023-10-09T08:59:16;19.40;99.90
15930;DHT22;8064;51.142;4.780;2023-10-09T09:01:49;19.40;99.90
15930;DHT22;8064;51.142;4.780;2023-10-09T09:04:38;19.50;99.90
15930;DHT22;8064;51.142;4.780;2023-10-09T09:07:05;19.70;99.90
15930;DHT22;8064;51.142;4.780;2023-10-09T09:09:31;19.90;99.90
15930;DHT22;8064;51.142;4.780;2023-10-09T09:11:59;20.00;99.90
15930;DHT22;8064;51.142;4.780;2023-10-09T09:14:36;20.20;99.90
15930;DHT22;8064;51.142;4.780;2023-10-09T09:17:03;20.40;99.90
15930;DHT22;8064;51.142;4.780;2023-10-09T09:19:31;20.50;99.90
15930;DHT22;8064;51.142;4.780;2023-10-09T09:21:58;20.70;99.90
15930;DHT22;8064;51.142;4.780;2023-10-09T09:24:37;20.90;99.90
15930;DHT22;8064;51.142;4.780;2023-10-09T09:27:04;21.10;99.90
15930;DHT22;8064;51.142;4.780;2023-10-09T09:32:06;21.40;99.90
15930;DHT22;8064;51.142;4.780;2023-10-09T09:34:48;21.60;99.90
15930;DHT22;8064;51.142;4.780;2023-10-09T09:37:22;21.70;99.90
15930;DHT22;8064;51.142;4.780;2023-10-09T09:40:00;22.00;99.90
15930;DHT22;8064;51.142;4.780;2023-10-09T09:42:28;22.20;99.90
15930;DHT22;8064;51.142;4.780;2023-10-09T09:44:57;22.20;99.90
15930;DHT22;8064;51.142;4.780;2023-10-09T09:47:24;22.30;99.90
15930;DHT22;8064;51.142;4.780;2023-10-09T09:49:53;22.20;99.90
15930;DHT22;8064;51.142;4.780;2023-10-09T09:52:28;22.20;99.90
15930;DHT22;8064;51.142;4.780;2023-10-09T09:54:53;22.30;99.90
15930;DHT22;8064;51.142;4.780;2023-10-09T09:57:22;22.50;99.90
15930;DHT22;8064;51.142;4.780;2023-10-09T09:59:52;22.60;99.90
15930;DHT22;8064;51.142;4.780;2023-10-09T10:02:27;22.60;99.90
15930;DHT22;8064;51.142;4.780;2023-10-09T10:04:56;22.60;99.90
15930;DHT22;8064;51.142;4.780;2023-10-09T10:07:23;22.50;99.90
15930;DHT22;8064;51.142;4.780;2023-10-09T10:09:50;22.40;99.90
15930;DHT22;8064;51.142;4.780;2023-10-09T10:12:50;22.40;99.90
15930;DHT22;8064;51.142;4.780;2023-10-09T10:18:22;23.00;99.90
15930;DHT22;8064;51.142;4.780;2023-10-09T10:21:15;23.50;99.90
15930;DHT22;8064;51.142;4.780;2023-10-09T10:23:44;23.80;99.90
15930;DHT22;8064;51.142;4.780;2023-10-09T10:26:20;23.90;99.90
15930;DHT22;8064;51.142;4.780;2023-10-09T10:29:14;23.70;99.90
15930;DHT22;8064;51.142;4.780;2023-10-09T10:32:02;23.70;99.90
15930;DHT22;8064;51.142;4.780;2023-10-09T10:37:38;23.30;99.90
15930;DHT22;8064;51.142;4.780;2023-10-09T10:40:23;23.10;99.90
15930;DHT22;8064;51.142;4.780;2023-10-09T10:43:07;23.00;99.90
15930;DHT22;8064;51.142;4.780;2023-10-09T10:45:39;22.80;99.90
15930;DHT22;8064;51.142;4.780;2023-10-09T10:48:11;22.70;99.90
15930;DHT22;8064;51.142;4.780;2023-10-09T10:51:04;22.60;99.90
15930;DHT22;8064;51.142;4.780;2023-10-09T10:53:30;22.40;99.90
15930;DHT22;8064;51.142;4.780;2023-10-09T10:56:13;22.40;99.90
15930;DHT22;8064;51.142;4.780;2023-10-09T10:58:40;22.30;99.90
15930;DHT22;8064;51.142;4.780;2023-10-09T11:01:19;22.20;99.90
15930;DHT22;8064;51.142;4.780;2023-10-09T11:03:48;22.20;99.90
15930;DHT22;8064;51.142;4.780;2023-10-09T11:06:27;22.20;99.90
15930;DHT22;8064;51.142;4.780;2023-10-09T11:09:09;22.20;99.90
15930;DHT22;8064;51.142;4.780;2023-10-09T11:11:47;22.10;99.90
15930;DHT22;8064;51.142;4.780;2023-10-09T11:14:13;22.00;99.90
15930;DHT22;8064;51.142;4.780;2023-10-09T11:16:41;22.00;99.90
15930;DHT22;8064;51.142;4.780;2023-10-09T11:19:11;22.00;99.90
15930;DHT22;8064;51.142;4.780;2023-10-09T11:21:56;22.00;99.90
15930;DHT22;8064;51.142;4.780;2023-10-09T11:24:40;22.00;99.90
15930;DHT22;8064;51.142;4.780;2023-10-09T11:27:09;22.00;99.90
15930;DHT22;8064;51.142;4.780;2023-10-09T11:29:48;22.00;99.90
15930;DHT22;8064;51.142;4.780;2023-10-09T11:32:17;22.00;99.90
15930;DHT22;8064;51.142;4.780;2023-10-09T11:37:19;22.00;99.90
15930;DHT22;8064;51.142;4.780;2023-10-09T11:40:04;22.00;99.90
15930;DHT22;8064;51.142;4.780;2023-10-09T11:42:49;22.00;99.90
15930;DHT22;8064;51.142;4.780;2023-10-09T11:45:21;22.10;99.90
15930;DHT22;8064;51.142;4.780;2023-10-09T11:47:51;22.10;99.90
15930;DHT22;8064;51.142;4.780;2023-10-09T11:50:44;22.00;99.90
15930;DHT22;8064;51.142;4.780;2023-10-09T11:53:18;22.10;99.90
15930;DHT22;8064;51.142;4.780;2023-10-09T11:55:50;22.10;99.90
15930;DHT22;8064;51.142;4.780;2023-10-09T11:58:18;22.10;99.90
15930;DHT22;8064;51.142;4.780;2023-10-09T12:00:52;22.10;99.90
15930;DHT22;8064;51.142;4.780;2023-10-09T12:03:24;22.10;99.90
15930;DHT22;8064;51.142;4.780;2023-10-09T12:05:55;22.10;99.90
15930;DHT22;8064;51.142;4.780;2023-10-09T12:08:23;22.10;99.90
15930;DHT22;8064;51.142;4.780;2023-10-09T12:10:52;22.10;99.90
15930;DHT22;8064;51.142;4.780;2023-10-09T12:13:21;22.10;99.90
15930;DHT22;8064;51.142;4.780;2023-10-09T12:15:49;22.10;99.90
15930;DHT22;8064;51.142;4.780;2023-10-09T12:18:14;22.10;99.90
15930;DHT22;8064;51.142;4.780;2023-10-09T12:20:42;22.00;99.90
15930;DHT22;8064;51.142;4.780;2023-10-09T12:23:13;22.00;99.90
15930;DHT22;8064;51.142;4.780;2023-10-09T12:25:40;22.00;99.90
15930;DHT22;8064;51.142;4.780;2023-10-09T12:28:06;22.00;99.90
15930;DHT22;8064;51.142;4.780;2023-10-09T12:30:34;22.00;99.90
15930;DHT22;8064;51.142;4.780;2023-10-09T12:33:05;22.00;99.90
15930;DHT22;8064;51.142;4.780;2023-10-09T12:35:36;22.00;99.90
15930;DHT22;8064;51.142;4.780;2023-10-09T12:38:03;22.00;99.90
15930;DHT22;8064;51.142;4.780;2023-10-09T12:40:29;21.90;99.90
15930;DHT22;8064;51.142;4.780;2023-10-09T12:42:57;21.90;99.90
15930;DHT22;8064;51.142;4.780;2023-10-09T12:45:29;21.90;99.90
15930;DHT22;8064;51.142;4.780;2023-10-09T12:48:01;21.90;99.90
15930;DHT22;8064;51.142;4.780;2023-10-09T12:50:29;21.90;99.90
15930;DHT22;8064;51.142;4.780;2023-10-09T12:52:59;21.80;99.90
15930;DHT22;8064;51.142;4.780;2023-10-09T12:55:35;21.80;99.90
15930;DHT22;8064;51.142;4.780;2023-10-09T12:58:01;21.70;99.90
15930;DHT22;8064;51.142;4.780;2023-10-09T13:00:35;21.70;99.90
15930;DHT22;8064;51.142;4.780;2023-10-09T13:03:04;21.70;99.90
15930;DHT22;8064;51.142;4.780;2023-10-09T13:05:39;21.70;99.90
15930;DHT22;8064;51.142;4.780;2023-10-09T13:08:18;21.70;99.90
15930;DHT22;8064;51.142;4.780;2023-10-09T13:10:48;21.70;99.90
15930;DHT22;8064;51.142;4.780;2023-10-09T13:13:24;21.60;99.90
15930;DHT22;8064;51.142;4.780;2023-10-09T13:15:52;21.70;99.90
15930;DHT22;8064;51.142;4.780;2023-10-09T13:18:18;21.70;99.90
15930;DHT22;8064;51.142;4.780;2023-10-09T13:20:44;21.80;99.90
15930;DHT22;8064;51.142;4.780;2023-10-09T13:23:11;21.90;99.90
15930;DHT22;8064;51.142;4.780;2023-10-09T13:25:40;21.90;99.90
15930;DHT22;8064;51.142;4.780;2023-10-09T13:28:06;22.00;99.90
15930;DHT22;8064;51.142;4.780;2023-10-09T13:30:32;22.10;99.90
15930;DHT22;8064;51.142;4.780;2023-10-09T13:33:04;22.10;99.90
15930;DHT22;8064;51.142;4.780;2023-10-09T13:35:31;22.20;99.90
15930;DHT22;8064;51.142;4.780;2023-10-09T13:38:03;22.20;99.90
15930;DHT22;8064;51.142;4.780;2023-10-09T13:40:33;22.20;99.90
15930;DHT22;8064;51.142;4.780;2023-10-09T13:43:02;22.20;99.90
15930;DHT22;8064;51.142;4.780;2023-10-09T13:45:28;22.20;99.90
15930;DHT22;8064;51.142;4.780;2023-10-09T13:47:56;22.20;99.90
15930;DHT22;8064;51.142;4.780;2023-10-09T13:50:27;22.10;99.90
15930;DHT22;8064;51.142;4.780;2023-10-09T13:52:58;22.10;99.90
15930;DHT22;8064;51.142;4.780;2023-10-09T13:55:24;22.00;99.90
15930;DHT22;8064;51.142;4.780;2023-10-09T13:57:57;22.00;99.90
15930;DHT22;8064;51.142;4.780;2023-10-09T14:00:23;22.00;99.90
15930;DHT22;8064;51.142;4.780;2023-10-09T14:03:00;21.90;99.90
15930;DHT22;8064;51.142;4.780;2023-10-09T14:05:28;21.90;99.90
15930;DHT22;8064;51.142;4.780;2023-10-09T14:07:54;21.90;99.90
15930;DHT22;8064;51.142;4.780;2023-10-09T14:10:19;21.80;99.90
15930;DHT22;8064;51.142;4.780;2023-10-09T14:12:51;21.80;99.90
15930;DHT22;8064;51.142;4.780;2023-10-09T14:15:19;21.70;99.90
15930;DHT22;8064;51.142;4.780;2023-10-09T14:17:45;21.60;99.90
15930;DHT22;8064;51.142;4.780;2023-10-09T14:20:12;21.60;99.90
15930;DHT22;8064;51.142;4.780;2023-10-09T14:22:55;21.50;99.90
15930;DHT22;8064;51.142;4.780;2023-10-09T14:25:21;21.50;99.90
15930;DHT22;8064;51.142;4.780;2023-10-09T14:27:47;21.50;99.90
15930;DHT22;8064;51.142;4.780;2023-10-09T14:30:13;21.40;99.90
15930;DHT22;8064;51.142;4.780;2023-10-09T14:32:48;21.40;99.90
15930;DHT22;8064;51.142;4.780;2023-10-09T14:35:21;21.40;99.90
15930;DHT22;8064;51.142;4.780;2023-10-09T14:37:52;21.30;99.90
15930;DHT22;8064;51.142;4.780;2023-10-09T14:40:19;21.40;99.90
15930;DHT22;8064;51.142;4.780;2023-10-09T14:42:56;21.40;99.90
15930;DHT22;8064;51.142;4.780;2023-10-09T14:45:24;21.30;99.90
15930;DHT22;8064;51.142;4.780;2023-10-09T14:47:52;21.30;99.90
15930;DHT22;8064;51.142;4.780;2023-10-09T14:50:20;21.30;99.90
15930;DHT22;8064;51.142;4.780;2023-10-09T14:52:48;21.30;99.90
15930;DHT22;8064;51.142;4.780;2023-10-09T14:55:16;21.30;99.90
15930;DHT22;8064;51.142;4.780;2023-10-09T14:57:48;21.30;99.90
15930;DHT22;8064;51.142;4.780;2023-10-09T15:00:16;21.30;99.90
15930;DHT22;8064;51.142;4.780;2023-10-09T15:02:49;21.30;99.90
15930;DHT22;8064;51.142;4.780;2023-10-09T15:05:16;21.30;99.90
15930;DHT22;8064;51.142;4.780;2023-10-09T15:07:42;21.20;99.90
15930;DHT22;8064;51.142;4.780;2023-10-09T15:10:08;21.20;99.90
15930;DHT22;8064;51.142;4.780;2023-10-09T15:12:35;21.10;99.90
15930;DHT22;8064;51.142;4.780;2023-10-09T15:15:09;21.10;99.90
15930;DHT22;8064;51.142;4.780;2023-10-09T15:17:41;21.10;99.90
15930;DHT22;8064;51.142;4.780;2023-10-09T15:20:14;21.20;99.90
15930;DHT22;8064;51.142;4.780;2023-10-09T15:22:41;21.20;99.90
15930;DHT22;8064;51.142;4.780;2023-10-09T15:25:08;21.20;99.90
15930;DHT22;8064;51.142;4.780;2023-10-09T15:27:33;21.30;99.90
15930;DHT22;8064;51.142;4.780;2023-10-09T15:29:59;21.30;99.90
15930;DHT22;8064;51.142;4.780;2023-10-09T15:32:25;21.30;99.90
15930;DHT22;8064;51.142;4.780;2023-10-09T15:34:56;21.30;99.90
15930;DHT22;8064;51.142;4.780;2023-10-09T15:37:22;21.30;99.90
15930;DHT22;8064;51.142;4.780;2023-10-09T15:39:48;21.30;99.90
15930;DHT22;8064;51.142;4.780;2023-10-09T15:42:15;21.20;99.90
15930;DHT22;8064;51.142;4.780;2023-10-09T15:44:42;21.20;99.90
15930;DHT22;8064;51.142;4.780;2023-10-09T15:47:08;21.20;99.90
15930;DHT22;8064;51.142;4.780;2023-10-09T15:49:34;21.20;99.90
15930;DHT22;8064;51.142;4.780;2023-10-09T15:52:03;21.20;99.90
15930;DHT22;8064;51.142;4.780;2023-10-09T15:54:29;21.10;99.90
15930;DHT22;8064;51.142;4.780;2023-10-09T15:56:56;21.10;99.90
15930;DHT22;8064;51.142;4.780;2023-10-09T15:59:23;21.00;99.90
15930;DHT22;8064;51.142;4.780;2023-10-09T16:01:50;21.00;99.90
15930;DHT22;8064;51.142;4.780;2023-10-09T16:04:17;21.00;99.90
15930;DHT22;8064;51.142;4.780;2023-10-09T16:06:43;21.00;99.90
15930;DHT22;8064;51.142;4.780;2023-10-09T16:09:09;20.90;99.90
15930;DHT22;8064;51.142;4.780;2023-10-09T16:11:47;20.90;99.90
15930;DHT22;8064;51.142;4.780;2023-10-09T16:14:13;20.80;99.90
15930;DHT22;8064;51.142;4.780;2023-10-09T16:16:41;20.80;99.90
15930;DHT22;8064;51.142;4.780;2023-10-09T16:19:09;20.70;99.90
15930;DHT22;8064;51.142;4.780;2023-10-09T16:21:36;20.70;99.90
15930;DHT22;8064;51.142;4.780;2023-10-09T16:24:02;20.70;99.90
15930;DHT22;8064;51.142;4.780;2023-10-09T16:26:31;20.60;99.90
15930;DHT22;8064;51.142;4.780;2023-10-09T16:29:06;20.60;99.90
15930;DHT22;8064;51.142;4.780;2023-10-09T16:31:34;20.50;99.90